createdAt,value
2023-12-30T00:01:30.635Z,-0.33
2023-12-30T00:03:57.484Z,-0.34
2023-12-30T00:06:24.201Z,-0.44
2023-12-30T00:08:50.788Z,-0.25
2023-12-30T00:11:17.391Z,-0.11
2023-12-30T00:13:44.044Z,0.03
2023-12-30T00:16:14.319Z,0.08
2023-12-30T00:18:41.005Z,0.15
2023-12-30T00:21:07.656Z,0.06
2023-12-30T00:23:40.843Z,0.16
2023-12-30T00:26:19.407Z,0.20
2023-12-30T00:28:46.048Z,0.10
2023-12-30T00:31:22.430Z,0.30
2023-12-30T00:33:49.228Z,0.33
2023-12-30T00:36:15.999Z,0.30
2023-12-30T00:38:42.741Z,0.27
2023-12-30T00:41:09.329Z,0.26
2023-12-30T00:43:36.162Z,0.23
2023-12-30T00:46:02.767Z,0.15
2023-12-30T00:48:30.712Z,0.13
2023-12-30T00:50:57.282Z,0.26
2023-12-30T00:53:23.865Z,0.16
2023-12-30T00:55:50.415Z,0.15
2023-12-30T00:58:17.092Z,0.19
2023-12-30T01:00:44.251Z,0.22
2023-12-30T01:03:11.282Z,0.15
2023-12-30T01:05:39.252Z,0.19
2023-12-30T01:08:06.446Z,0.18
2023-12-30T01:10:33.108Z,0.18
2023-12-30T01:12:59.952Z,0.26
2023-12-30T01:15:26.767Z,0.20
2023-12-30T01:17:53.421Z,0.23
2023-12-30T01:20:20.096Z,0.20
2023-12-30T01:22:47.988Z,0.15
2023-12-30T01:25:14.681Z,0.16
2023-12-30T01:27:41.240Z,0.13
2023-12-30T01:30:08.398Z,0.20
2023-12-30T01:32:35.083Z,0.01
2023-12-30T01:35:01.794Z,0.19
2023-12-30T01:37:28.455Z,0.13
2023-12-30T01:39:56.449Z,-0.01
2023-12-30T01:42:23.043Z,0.05
2023-12-30T01:44:49.681Z,0.03
2023-12-30T01:47:16.389Z,-0.11
2023-12-30T01:49:43.157Z,-0.05
2023-12-30T01:52:09.851Z,-0.21
2023-12-30T01:54:36.552Z,-0.21
2023-12-30T01:57:04.911Z,-0.18
2023-12-30T01:59:31.617Z,-0.44
2023-12-30T02:01:58.375Z,-0.39
2023-12-30T02:04:24.977Z,-0.53
2023-12-30T02:06:51.619Z,-0.60
2023-12-30T02:09:18.205Z,-0.49
2023-12-30T02:11:44.835Z,-0.63
2023-12-30T02:14:25.827Z,-0.74
2023-12-30T02:16:52.424Z,-0.60
2023-12-30T02:19:19.096Z,-0.63
2023-12-30T02:21:45.700Z,-0.70
2023-12-30T02:24:15.176Z,-0.52
2023-12-30T02:26:41.863Z,-0.88
2023-12-30T02:29:08.630Z,-0.79
2023-12-30T02:31:36.230Z,-0.84
2023-12-30T02:34:02.940Z,-0.92
2023-12-30T02:36:29.570Z,-0.79
2023-12-30T02:38:56.185Z,-0.90
2023-12-30T02:41:24.209Z,-0.87
2023-12-30T02:43:53.846Z,-0.90
2023-12-30T02:46:20.515Z,-1.02
2023-12-30T02:48:47.249Z,-0.95
2023-12-30T02:51:15.411Z,-1.04
2023-12-30T02:53:41.998Z,-0.95
2023-12-30T02:56:18.098Z,-0.98
2023-12-30T02:58:46.645Z,-0.97
2023-12-30T03:01:13.293Z,-0.90
2023-12-30T03:03:40.061Z,-0.97
2023-12-30T03:06:07.121Z,-0.88
2023-12-30T03:08:33.793Z,-0.81
2023-12-30T03:11:00.534Z,-1.00
2023-12-30T03:13:27.255Z,-0.97
2023-12-30T03:15:55.238Z,-0.85
2023-12-30T03:18:22.014Z,-0.90
2023-12-30T03:20:48.610Z,-0.88
2023-12-30T03:23:15.142Z,-0.90
2023-12-30T03:25:41.730Z,-1.18
2023-12-30T03:28:08.313Z,-1.02
2023-12-30T03:30:36.230Z,-1.13
2023-12-30T03:33:04.985Z,-0.92
2023-12-30T03:35:31.733Z,-0.91
2023-12-30T03:37:58.284Z,-1.08
2023-12-30T03:40:24.965Z,-0.90
2023-12-30T03:42:51.612Z,-0.90
2023-12-30T03:45:18.170Z,-0.83
2023-12-30T03:47:44.868Z,-0.84
2023-12-30T03:50:13.088Z,-0.87
2023-12-30T03:52:39.874Z,-0.97
2023-12-30T03:55:07.022Z,-1.13
2023-12-30T03:57:33.648Z,-1.01
2023-12-30T04:00:00.313Z,-1.27
2023-12-30T04:02:27.090Z,-1.25
2023-12-30T04:04:53.722Z,-0.95
2023-12-30T04:07:21.807Z,-1.24
2023-12-30T04:09:48.426Z,-1.13
2023-12-30T04:12:15.060Z,-0.90
2023-12-30T04:14:41.640Z,-0.98
2023-12-30T04:17:08.313Z,-1.12
2023-12-30T04:19:34.986Z,-0.84
2023-12-30T04:22:01.631Z,-0.80
2023-12-30T04:24:29.644Z,-0.95
2023-12-30T04:26:56.347Z,-0.66
2023-12-30T04:29:22.951Z,-0.73
2023-12-30T04:31:49.701Z,-0.95
2023-12-30T04:34:16.468Z,-0.79
2023-12-30T04:36:43.079Z,-0.76
2023-12-30T04:39:09.658Z,-0.87
2023-12-30T04:41:38.865Z,-0.79
2023-12-30T04:44:05.523Z,-0.64
2023-12-30T04:46:32.198Z,-0.90
2023-12-30T04:48:58.917Z,-0.79
2023-12-30T04:51:25.609Z,-0.80
2023-12-30T04:53:52.284Z,-0.74
2023-12-30T04:56:18.851Z,-0.67
2023-12-30T04:58:46.822Z,-0.67
2023-12-30T05:01:13.732Z,-0.85
2023-12-30T05:03:41.656Z,-0.56
2023-12-30T05:06:08.326Z,-0.74
2023-12-30T05:08:34.926Z,-0.95
2023-12-30T05:11:01.507Z,-0.85
2023-12-30T05:13:28.203Z,-0.69
2023-12-30T05:15:56.188Z,-0.80
2023-12-30T05:18:22.848Z,-0.94
2023-12-30T05:20:49.422Z,-0.81
2023-12-30T05:23:16.112Z,-0.98
2023-12-30T05:25:42.878Z,-0.85
2023-12-30T05:28:09.553Z,-0.95
2023-12-30T05:30:36.214Z,-1.00
2023-12-30T05:33:04.990Z,-0.91
2023-12-30T05:35:31.789Z,-0.98
2023-12-30T05:37:58.434Z,-1.11
2023-12-30T05:40:25.132Z,-1.15
2023-12-30T05:42:51.769Z,-1.13
2023-12-30T05:45:18.447Z,-1.20
2023-12-30T05:47:45.108Z,-1.39
2023-12-30T05:50:14.067Z,-1.24
2023-12-30T05:52:40.962Z,-1.40
2023-12-30T05:55:08.314Z,-1.48
2023-12-30T05:57:35.333Z,-1.32
2023-12-30T06:00:02.037Z,-1.49
2023-12-30T06:02:28.818Z,-1.39
2023-12-30T06:04:55.478Z,-1.46
2023-12-30T06:07:23.487Z,-1.42
2023-12-30T06:09:50.056Z,-1.43
2023-12-30T06:12:16.678Z,-1.46
2023-12-30T06:14:43.384Z,-1.45
2023-12-30T06:17:10.110Z,-1.35
2023-12-30T06:19:36.760Z,-1.38
2023-12-30T06:22:03.435Z,-1.36
2023-12-30T06:24:31.351Z,-1.27
2023-12-30T06:26:57.885Z,-1.35
2023-12-30T06:29:24.613Z,-1.38
2023-12-30T06:31:51.393Z,-1.42
2023-12-30T06:34:18.009Z,-1.53
2023-12-30T06:36:45.124Z,-1.39
2023-12-30T06:39:11.904Z,-1.35
2023-12-30T06:41:39.881Z,-1.40
2023-12-30T06:44:06.468Z,-1.53
2023-12-30T06:46:33.234Z,-1.57
2023-12-30T06:48:59.986Z,-1.40
2023-12-30T06:51:26.655Z,-1.60
2023-12-30T06:53:53.210Z,-1.53
2023-12-30T06:56:19.857Z,-1.43
2023-12-30T06:58:47.869Z,-1.40
2023-12-30T07:01:14.780Z,-1.46
2023-12-30T07:03:41.671Z,-1.46
2023-12-30T07:06:08.346Z,-1.42
2023-12-30T07:08:35.002Z,-1.36
2023-12-30T07:11:01.573Z,-1.36
2023-12-30T07:13:28.201Z,-1.22
2023-12-30T07:15:56.202Z,-1.15
2023-12-30T07:18:22.897Z,-1.16
2023-12-30T07:20:49.515Z,-1.13
2023-12-30T07:23:16.166Z,-0.90
2023-12-30T07:25:42.931Z,-0.87
2023-12-30T07:28:09.810Z,-0.63
2023-12-30T07:30:36.487Z,-0.05
2023-12-30T07:33:05.292Z,-0.12
2023-12-30T07:35:32.169Z,0.05
2023-12-30T07:37:58.760Z,-0.23
2023-12-30T07:40:25.398Z,-0.11
2023-12-30T07:42:52.172Z,0.16
2023-12-30T07:45:18.816Z,0.56
2023-12-30T07:47:45.673Z,0.36
2023-12-30T07:50:13.836Z,1.31
2023-12-30T07:52:40.563Z,1.71
2023-12-30T07:55:07.838Z,1.73
2023-12-30T07:57:34.533Z,2.00
2023-12-30T08:00:01.140Z,1.63
2023-12-30T08:02:28.089Z,2.28
2023-12-30T08:04:54.675Z,1.71
2023-12-30T08:07:22.666Z,2.81
2023-12-30T08:09:49.281Z,3.35
2023-12-30T08:12:15.961Z,4.03
2023-12-30T08:14:42.515Z,4.94
2023-12-30T08:17:09.186Z,4.72
2023-12-30T08:19:35.820Z,5.59
2023-12-30T08:22:02.471Z,5.92
2023-12-30T08:24:30.426Z,6.38
2023-12-30T08:26:57.053Z,6.91
2023-12-30T08:29:23.637Z,6.86
2023-12-30T08:31:50.304Z,6.88
2023-12-30T08:34:17.045Z,7.79
2023-12-30T08:36:43.804Z,7.15
2023-12-30T08:39:10.406Z,6.41
2023-12-30T08:41:38.753Z,6.09
2023-12-30T08:44:05.354Z,5.61
2023-12-30T08:46:32.037Z,5.34
2023-12-30T08:48:58.813Z,5.26
2023-12-30T08:51:25.532Z,5.14
2023-12-30T08:53:52.250Z,5.47
2023-12-30T08:56:18.869Z,6.00
2023-12-30T08:58:46.819Z,7.12
2023-12-30T09:01:13.507Z,8.34
2023-12-30T09:03:40.286Z,8.81
2023-12-30T09:06:07.262Z,9.60
2023-12-30T09:08:33.904Z,9.47
2023-12-30T09:11:00.475Z,10.32
2023-12-30T09:13:27.157Z,10.60
2023-12-30T09:15:55.177Z,10.86
2023-12-30T09:18:21.910Z,10.55
2023-12-30T09:20:48.716Z,11.20
2023-12-30T09:23:15.348Z,11.13
2023-12-30T09:25:42.060Z,10.93
2023-12-30T09:28:08.750Z,10.21
2023-12-30T09:30:35.765Z,9.39
2023-12-30T09:33:05.366Z,8.57
2023-12-30T09:35:33.400Z,7.64
2023-12-30T09:38:00.172Z,6.98
2023-12-30T09:40:26.819Z,6.91
2023-12-30T09:42:53.408Z,6.51
2023-12-30T09:45:20.157Z,7.40
2023-12-30T09:47:47.017Z,7.78
2023-12-30T09:50:15.482Z,8.01
2023-12-30T09:52:42.188Z,8.36
2023-12-30T09:55:09.127Z,8.89
2023-12-30T09:57:35.693Z,9.50
2023-12-30T10:00:02.295Z,9.67
2023-12-30T10:02:28.919Z,9.39
2023-12-30T10:04:55.645Z,8.36
2023-12-30T10:07:23.682Z,8.60
2023-12-30T10:09:50.320Z,7.96
2023-12-30T10:12:16.884Z,8.53
2023-12-30T10:14:43.443Z,9.07
2023-12-30T10:17:10.097Z,10.28
2023-12-30T10:19:37.007Z,11.00
2023-12-30T10:22:04.151Z,11.69
2023-12-30T10:24:32.665Z,12.75
2023-12-30T10:26:59.389Z,13.33
2023-12-30T10:29:26.001Z,14.06
2023-12-30T10:31:59.369Z,13.86
2023-12-30T10:34:26.073Z,14.30
2023-12-30T10:36:52.746Z,14.64
2023-12-30T10:39:19.447Z,13.97
2023-12-30T10:41:47.364Z,13.28
2023-12-30T10:44:13.949Z,12.92
2023-12-30T10:46:40.620Z,13.06
2023-12-30T10:49:07.256Z,13.16
2023-12-30T10:51:34.783Z,13.43
2023-12-30T10:54:04.410Z,12.92
2023-12-30T10:56:31.424Z,13.13
2023-12-30T10:59:00.383Z,13.82
2023-12-30T11:01:27.016Z,13.06
2023-12-30T11:03:53.735Z,14.22
2023-12-30T11:06:24.370Z,14.23
2023-12-30T11:08:52.760Z,13.84
2023-12-30T11:11:19.420Z,14.77
2023-12-30T11:13:46.262Z,14.04
2023-12-30T11:16:15.389Z,15.34
2023-12-30T11:18:45.550Z,14.71
2023-12-30T11:21:13.031Z,14.94
2023-12-30T11:23:39.792Z,15.71
2023-12-30T11:26:06.583Z,15.52
2023-12-30T11:28:33.670Z,14.73
2023-12-30T11:31:00.946Z,12.84
2023-12-30T11:33:29.168Z,12.47
2023-12-30T11:35:55.835Z,11.06
2023-12-30T11:38:22.532Z,11.32
2023-12-30T11:40:50.603Z,11.62
2023-12-30T11:43:17.442Z,12.61
2023-12-30T11:45:44.085Z,12.20
2023-12-30T11:48:10.785Z,12.93
2023-12-30T11:50:39.023Z,12.82
2023-12-30T11:53:05.959Z,12.97
2023-12-30T11:55:32.666Z,11.42
2023-12-30T11:57:59.286Z,12.19
2023-12-30T12:00:26.237Z,12.07
2023-12-30T12:02:52.873Z,11.07
2023-12-30T12:05:19.595Z,10.87
2023-12-30T12:07:47.599Z,11.03
2023-12-30T12:10:14.194Z,11.21
2023-12-30T12:12:41.232Z,11.92
2023-12-30T12:15:09.020Z,11.97
2023-12-30T12:17:36.089Z,12.03
2023-12-30T12:20:03.185Z,11.63
2023-12-30T12:22:29.943Z,11.58
2023-12-30T12:24:57.937Z,12.01
2023-12-30T12:27:24.592Z,12.17
2023-12-30T12:29:51.510Z,12.27
2023-12-30T12:32:19.234Z,12.31
2023-12-30T12:34:45.847Z,12.13
2023-12-30T12:37:12.608Z,11.46
2023-12-30T12:39:39.281Z,11.27
2023-12-30T12:42:15.031Z,11.32
2023-12-30T12:44:50.067Z,11.13
2023-12-30T12:47:16.661Z,10.84
2023-12-30T12:49:43.345Z,11.20
2023-12-30T12:52:10.002Z,11.46
2023-12-30T12:54:36.569Z,11.28
2023-12-30T12:57:03.446Z,11.31
2023-12-30T12:59:31.459Z,11.27
2023-12-30T13:01:58.372Z,11.58
2023-12-30T13:04:25.279Z,11.78
2023-12-30T13:06:51.953Z,11.80
2023-12-30T13:09:18.550Z,12.01
2023-12-30T13:11:45.216Z,12.21
2023-12-30T13:14:12.339Z,11.94
2023-12-30T13:16:40.861Z,11.65
2023-12-30T13:19:07.901Z,12.04
2023-12-30T13:21:35.020Z,12.13
2023-12-30T13:24:01.757Z,12.31
2023-12-30T13:26:28.752Z,11.90
2023-12-30T13:28:55.836Z,11.83
2023-12-30T13:31:22.959Z,11.71
2023-12-30T13:33:51.569Z,11.13
2023-12-30T13:36:18.282Z,11.28
2023-12-30T13:38:44.884Z,10.89
2023-12-30T13:41:11.879Z,11.00
2023-12-30T13:43:38.654Z,10.86
2023-12-30T13:46:05.313Z,10.05
2023-12-30T13:48:32.031Z,10.05
2023-12-30T13:51:00.045Z,10.18
2023-12-30T13:53:26.956Z,10.26
2023-12-30T13:55:53.877Z,10.32
2023-12-30T13:58:20.651Z,10.46
2023-12-30T14:00:47.524Z,10.01
2023-12-30T14:03:14.330Z,9.60
2023-12-30T14:05:41.094Z,9.38
2023-12-30T14:08:09.290Z,9.38
2023-12-30T14:10:35.980Z,9.42
2023-12-30T14:13:03.036Z,9.01
2023-12-30T14:15:29.800Z,8.78
2023-12-30T14:17:56.525Z,8.50
2023-12-30T14:20:23.149Z,8.26
2023-12-30T14:22:49.827Z,8.10
2023-12-30T14:25:17.850Z,7.92
2023-12-30T14:27:44.505Z,7.74
2023-12-30T14:30:12.894Z,7.81
2023-12-30T14:32:39.697Z,7.65
2023-12-30T14:35:06.961Z,7.67
2023-12-30T14:37:33.723Z,7.57
2023-12-30T14:40:00.443Z,7.53
2023-12-30T14:42:28.504Z,7.38
2023-12-30T14:44:55.162Z,7.43
2023-12-30T14:47:21.741Z,7.48
2023-12-30T14:49:48.377Z,7.27
2023-12-30T14:52:15.003Z,7.06
2023-12-30T14:54:41.586Z,6.85
2023-12-30T14:57:08.241Z,6.54
2023-12-30T14:59:36.241Z,6.69
2023-12-30T15:02:02.845Z,6.23
2023-12-30T15:04:29.518Z,5.99
2023-12-30T15:06:56.178Z,5.99
2023-12-30T15:09:22.796Z,5.76
2023-12-30T15:11:49.391Z,5.93
2023-12-30T15:14:15.942Z,5.95
2023-12-30T15:16:43.946Z,6.11
2023-12-30T15:19:10.825Z,5.86
2023-12-30T15:21:37.555Z,6.07
2023-12-30T15:24:05.112Z,5.76
2023-12-30T15:26:31.723Z,5.52
2023-12-30T15:28:58.264Z,5.45
2023-12-30T15:31:25.025Z,5.06
2023-12-30T15:33:53.181Z,5.13
2023-12-30T15:36:19.827Z,4.65
2023-12-30T15:38:46.397Z,4.08
2023-12-30T15:41:13.025Z,3.94
2023-12-30T15:43:39.609Z,3.82
2023-12-30T15:46:06.296Z,3.38
2023-12-30T15:48:33.069Z,3.22
2023-12-30T15:51:01.081Z,3.39
2023-12-30T15:53:27.747Z,3.29
2023-12-30T15:55:54.393Z,3.40
2023-12-30T15:58:21.047Z,3.12
2023-12-30T16:00:48.033Z,3.46
2023-12-30T16:03:15.652Z,3.51
2023-12-30T16:05:42.841Z,3.31
2023-12-30T16:08:11.002Z,3.54
2023-12-30T16:10:37.677Z,3.80
2023-12-30T16:13:04.854Z,4.08
2023-12-30T16:15:32.014Z,4.20
2023-12-30T16:17:59.227Z,4.21
2023-12-30T16:20:25.839Z,4.01
2023-12-30T16:22:52.441Z,4.01
2023-12-30T16:25:20.485Z,3.98
2023-12-30T16:27:47.711Z,3.80
2023-12-30T16:30:15.780Z,3.56
2023-12-30T16:32:42.562Z,3.38
2023-12-30T16:35:09.578Z,3.36
2023-12-30T16:37:36.272Z,3.48
2023-12-30T16:40:02.967Z,3.46
2023-12-30T16:42:30.933Z,3.55
2023-12-30T16:44:57.621Z,3.40
2023-12-30T16:47:24.342Z,3.39
2023-12-30T16:49:50.918Z,3.35
2023-12-30T16:52:17.640Z,3.58
2023-12-30T16:54:44.241Z,3.34
2023-12-30T16:57:10.837Z,3.18
2023-12-30T16:59:38.899Z,2.72
2023-12-30T17:02:05.672Z,2.52
2023-12-30T17:04:32.461Z,2.52
2023-12-30T17:06:59.107Z,2.38
2023-12-30T17:09:25.755Z,2.59
2023-12-30T17:11:52.355Z,2.98
2023-12-30T17:14:19.004Z,2.93
2023-12-30T17:16:47.007Z,2.53
2023-12-30T17:19:13.674Z,1.66
2023-12-30T17:21:40.274Z,1.59
2023-12-30T17:24:07.644Z,1.35
2023-12-30T17:26:34.271Z,1.19
2023-12-30T17:29:00.869Z,1.40
2023-12-30T17:31:27.556Z,1.32
2023-12-30T17:33:55.618Z,1.08
2023-12-30T17:36:22.395Z,1.14
2023-12-30T17:38:49.044Z,1.54
2023-12-30T17:41:15.701Z,1.78
2023-12-30T17:43:42.338Z,1.74
2023-12-30T17:46:09.116Z,1.78
2023-12-30T17:48:35.778Z,1.54
2023-12-30T17:51:03.775Z,1.33
2023-12-30T17:53:30.843Z,1.40
2023-12-30T17:55:57.410Z,1.88
2023-12-30T17:58:24.091Z,2.24
2023-12-30T18:00:50.955Z,2.41
2023-12-30T18:03:17.706Z,1.81
2023-12-30T18:05:44.510Z,1.78
2023-12-30T18:08:12.486Z,1.54
2023-12-30T18:10:39.204Z,1.71
2023-12-30T18:13:06.117Z,1.42
2023-12-30T18:15:32.946Z,1.28
2023-12-30T18:17:59.583Z,0.96
2023-12-30T18:20:26.183Z,0.99
2023-12-30T18:22:52.873Z,1.15
2023-12-30T18:25:20.906Z,0.95
2023-12-30T18:27:47.878Z,0.70
2023-12-30T18:30:15.720Z,0.64
2023-12-30T18:32:42.414Z,0.74
2023-12-30T18:35:09.693Z,0.42
2023-12-30T18:37:36.473Z,0.61
2023-12-30T18:40:03.127Z,0.49
2023-12-30T18:42:31.127Z,0.57
2023-12-30T18:44:57.763Z,0.52
2023-12-30T18:47:24.342Z,0.75
2023-12-30T18:49:50.960Z,0.50
2023-12-30T18:52:17.624Z,0.35
2023-12-30T18:54:44.209Z,0.08
2023-12-30T18:57:10.785Z,-0.05
2023-12-30T18:59:38.825Z,0.02
2023-12-30T19:02:05.444Z,-0.15
2023-12-30T19:04:33.603Z,0.33
2023-12-30T19:07:01.797Z,0.09
2023-12-30T19:09:28.386Z,0.43
2023-12-30T19:11:55.013Z,0.27
2023-12-30T19:14:21.555Z,-0.13
2023-12-30T19:16:49.468Z,-0.19
2023-12-30T19:19:16.052Z,-0.29
2023-12-30T19:21:42.701Z,-0.33
2023-12-30T19:24:09.342Z,-0.48
2023-12-30T19:26:36.072Z,-0.48
2023-12-30T19:29:02.704Z,-0.42
2023-12-30T19:31:29.266Z,-0.06
2023-12-30T19:33:57.231Z,-0.21
2023-12-30T19:36:24.388Z,-0.36
2023-12-30T19:38:53.064Z,-0.69
2023-12-30T19:41:19.727Z,-0.61
2023-12-30T19:43:46.468Z,-0.40
2023-12-30T19:46:13.336Z,0.01
2023-12-30T19:48:40.080Z,0.37
2023-12-30T19:51:08.134Z,-0.34
2023-12-30T19:53:34.781Z,-0.56
2023-12-30T19:56:01.412Z,-0.61
2023-12-30T19:58:28.100Z,-0.66
2023-12-30T20:00:54.718Z,-0.60
2023-12-30T20:03:21.281Z,-0.66
2023-12-30T20:05:47.885Z,-0.21
2023-12-30T20:08:16.297Z,-0.06
2023-12-30T20:10:42.928Z,-0.34
2023-12-30T20:13:09.749Z,-0.21
2023-12-30T20:15:36.409Z,-0.57
2023-12-30T20:18:03.371Z,-0.73
2023-12-30T20:20:30.060Z,-0.95
2023-12-30T20:22:56.699Z,-0.91
2023-12-30T20:25:24.788Z,-0.73
2023-12-30T20:27:51.451Z,-0.40
2023-12-30T20:30:18.373Z,-0.59
2023-12-30T20:32:45.129Z,-0.70
2023-12-30T20:35:11.851Z,-0.94
2023-12-30T20:37:38.720Z,-1.04
2023-12-30T20:40:08.106Z,-1.02
2023-12-30T20:42:36.141Z,-1.20
2023-12-30T20:45:02.963Z,-0.91
2023-12-30T20:47:29.605Z,-0.57
2023-12-30T20:49:56.511Z,-1.01
2023-12-30T20:52:23.125Z,-1.20
2023-12-30T20:54:49.704Z,-1.36
2023-12-30T20:57:16.367Z,-1.31
2023-12-30T20:59:44.403Z,-1.39
2023-12-30T21:02:11.061Z,-1.38
2023-12-30T21:04:37.860Z,-1.38
2023-12-30T21:07:04.851Z,-1.59
2023-12-30T21:09:31.444Z,-1.38
2023-12-30T21:11:57.996Z,-1.28
2023-12-30T21:14:24.610Z,-1.57
2023-12-30T21:16:54.226Z,-1.38
2023-12-30T21:19:21.045Z,-1.64
2023-12-30T21:21:47.722Z,-1.31
2023-12-30T21:24:14.321Z,-1.35
2023-12-30T21:26:40.956Z,-1.43
2023-12-30T21:29:07.549Z,-1.34
2023-12-30T21:31:34.231Z,-1.55
2023-12-30T21:34:02.176Z,-1.60
2023-12-30T21:36:28.809Z,-1.31
2023-12-30T21:38:55.439Z,-1.08
2023-12-30T21:41:22.155Z,-0.87
2023-12-30T21:43:48.830Z,-0.87
2023-12-30T21:46:15.704Z,-0.77
2023-12-30T21:48:42.369Z,-1.01
2023-12-30T21:51:10.307Z,-0.97
2023-12-30T21:53:36.931Z,-1.09
2023-12-30T21:56:04.001Z,-1.02
2023-12-30T21:58:30.639Z,-1.15
2023-12-30T22:00:57.265Z,-1.01
2023-12-30T22:03:24.008Z,-1.13
2023-12-30T22:05:50.671Z,-0.74
2023-12-30T22:08:18.662Z,-0.92
2023-12-30T22:10:45.338Z,-1.36
2023-12-30T22:13:12.089Z,-1.15
2023-12-30T22:15:38.718Z,-1.39
2023-12-30T22:18:05.487Z,-1.27
2023-12-30T22:20:32.373Z,-0.94
2023-12-30T22:22:58.965Z,-0.83
2023-12-30T22:25:26.990Z,-1.02
2023-12-30T22:27:53.646Z,-1.31
2023-12-30T22:30:20.324Z,-1.36
2023-12-30T22:32:46.926Z,-1.63
2023-12-30T22:35:13.682Z,-1.11
2023-12-30T22:37:40.394Z,-0.90
2023-12-30T22:40:08.236Z,-0.79
2023-12-30T22:42:36.258Z,-0.97
2023-12-30T22:45:03.187Z,-1.11
2023-12-30T22:47:29.795Z,-1.28
2023-12-30T22:49:56.449Z,-1.11
2023-12-30T22:52:23.071Z,-0.98
2023-12-30T22:54:49.717Z,-0.81
2023-12-30T22:57:16.404Z,-0.81
2023-12-30T22:59:44.345Z,-0.80
2023-12-30T23:02:11.007Z,-0.56
2023-12-30T23:04:37.688Z,-1.09
2023-12-30T23:07:04.698Z,-1.11
2023-12-30T23:09:31.395Z,-1.12
2023-12-30T23:11:58.023Z,-1.46
2023-12-30T23:14:24.566Z,-1.70
2023-12-30T23:16:52.524Z,-1.59
2023-12-30T23:19:19.194Z,-1.55
2023-12-30T23:21:45.779Z,-1.39
2023-12-30T23:24:12.473Z,-1.18
2023-12-30T23:26:39.093Z,-1.22
2023-12-30T23:29:05.689Z,-1.35
2023-12-30T23:31:32.344Z,-1.40
2023-12-30T23:34:00.432Z,-1.35
2023-12-30T23:36:27.136Z,-1.35
2023-12-30T23:38:53.719Z,-1.24
2023-12-30T23:41:20.337Z,-1.09
2023-12-30T23:43:47.044Z,-1.20
2023-12-30T23:46:13.754Z,-1.35
2023-12-30T23:48:40.378Z,-1.27
2023-12-30T23:51:08.373Z,-1.39
2023-12-30T23:53:37.233Z,-1.57
2023-12-30T23:56:04.622Z,-1.93
2023-12-30T23:58:31.292Z,-1.83
